New Holland, Illinois
Current Conditions -  °F | °C
As of 3:35 PM on Friday 28 Nov 2014 (Local Time) from KAAA Reporting Station
Clear Clear  
Wind Chill: 29°   Ceiling: Unl
Heat Index: 39°   Visibility: 10mi
Dew Point: 32°   Wind: 18mph
Humidity: 76%   Direction: 180°S
Pressure: 29.98"   Gusts: NA
Location:  40.18°N, 89.58°W
Report Text: KAAA 282135Z AUTO 18016KT 10SM CLR 04/00 A2998 RMK AO2 T00380000
Loading
Personal Weather Stations






























Interactive Weather Map New forecast layout! Learn more

10-Day Weather Forecast

Advertisements
Track Severe Weather on mobile